sensor_id;sensor_type;location;lat;lon;timestamp;P1;durP1;ratioP1;P2;durP2;ratioP2
6937;SDS011;40040;42.706;23.372;2023-04-25T00:00:46;4.35;;;3.90;;
6937;SDS011;40040;42.706;23.372;2023-04-25T00:03:12;4.57;;;3.75;;
6937;SDS011;40040;42.706;23.372;2023-04-25T00:05:40;4.47;;;3.60;;
6937;SDS011;40040;42.706;23.372;2023-04-25T00:08:08;4.65;;;4.20;;
6937;SDS011;40040;42.706;23.372;2023-04-25T00:10:35;4.55;;;4.15;;
6937;SDS011;40040;42.706;23.372;2023-04-25T00:13:02;5.30;;;4.13;;
6937;SDS011;40040;42.706;23.372;2023-04-25T00:15:29;4.20;;;3.80;;
6937;SDS011;40040;42.706;23.372;2023-04-25T00:17:56;4.95;;;4.28;;
6937;SDS011;40040;42.706;23.372;2023-04-25T00:20:23;4.25;;;3.95;;
6937;SDS011;40040;42.706;23.372;2023-04-25T00:22:50;4.20;;;3.80;;
6937;SDS011;40040;42.706;23.372;2023-04-25T00:25:19;4.72;;;4.32;;
6937;SDS011;40040;42.706;23.372;2023-04-25T00:27:46;3.92;;;3.63;;
6937;SDS011;40040;42.706;23.372;2023-04-25T00:30:13;4.07;;;3.78;;
6937;SDS011;40040;42.706;23.372;2023-04-25T00:32:40;4.25;;;3.95;;
6937;SDS011;40040;42.706;23.372;2023-04-25T00:35:07;3.60;;;3.40;;
6937;SDS011;40040;42.706;23.372;2023-04-25T00:37:35;3.60;;;3.40;;
6937;SDS011;40040;42.706;23.372;2023-04-25T00:40:03;3.47;;;3.17;;
6937;SDS011;40040;42.706;23.372;2023-04-25T00:42:33;4.40;;;4.00;;
6937;SDS011;40040;42.706;23.372;2023-04-25T00:45:02;4.32;;;4.03;;
6937;SDS011;40040;42.706;23.372;2023-04-25T00:47:33;3.92;;;3.72;;
6937;SDS011;40040;42.706;23.372;2023-04-25T00:50:01;4.10;;;3.80;;
6937;SDS011;40040;42.706;23.372;2023-04-25T00:52:28;3.80;;;3.50;;
6937;SDS011;40040;42.706;23.372;2023-04-25T00:54:55;4.05;;;3.75;;
6937;SDS011;40040;42.706;23.372;2023-04-25T00:57:22;4.53;;;4.13;;
6937;SDS011;40040;42.706;23.372;2023-04-25T00:59:50;4.38;;;4.07;;
6937;SDS011;40040;42.706;23.372;2023-04-25T01:02:19;5.00;;;4.50;;
6937;SDS011;40040;42.706;23.372;2023-04-25T01:04:47;5.15;;;4.65;;
6937;SDS011;40040;42.706;23.372;2023-04-25T01:07:14;4.03;;;3.72;;
6937;SDS011;40040;42.706;23.372;2023-04-25T01:09:41;4.05;;;3.65;;
6937;SDS011;40040;42.706;23.372;2023-04-25T01:12:08;3.92;;;3.67;;
6937;SDS011;40040;42.706;23.372;2023-04-25T01:14:35;3.55;;;3.25;;
6937;SDS011;40040;42.706;23.372;2023-04-25T01:17:03;3.83;;;3.50;;
6937;SDS011;40040;42.706;23.372;2023-04-25T01:19:32;4.20;;;3.80;;
6937;SDS011;40040;42.706;23.372;2023-04-25T01:22:00;5.97;;;5.05;;
6937;SDS011;40040;42.706;23.372;2023-04-25T01:24:28;4.95;;;4.30;;
6937;SDS011;40040;42.706;23.372;2023-04-25T01:26:55;4.80;;;3.97;;
6937;SDS011;40040;42.706;23.372;2023-04-25T01:29:23;5.53;;;4.40;;
6937;SDS011;40040;42.706;23.372;2023-04-25T01:31:50;6.97;;;4.40;;
6937;SDS011;40040;42.706;23.372;2023-04-25T01:34:18;6.45;;;4.38;;
6937;SDS011;40040;42.706;23.372;2023-04-25T01:36:45;3.83;;;3.53;;
6937;SDS011;40040;42.706;23.372;2023-04-25T01:39:14;4.00;;;3.50;;
6937;SDS011;40040;42.706;23.372;2023-04-25T01:41:41;4.03;;;3.60;;
6937;SDS011;40040;42.706;23.372;2023-04-25T01:44:09;3.88;;;3.58;;
6937;SDS011;40040;42.706;23.372;2023-04-25T01:46:36;3.40;;;3.20;;
6937;SDS011;40040;42.706;23.372;2023-04-25T01:49:03;3.40;;;3.20;;
6937;SDS011;40040;42.706;23.372;2023-04-25T01:51:29;3.53;;;3.22;;
6937;SDS011;40040;42.706;23.372;2023-04-25T01:53:57;3.30;;;3.10;;
6937;SDS011;40040;42.706;23.372;2023-04-25T01:56:27;3.85;;;3.55;;
6937;SDS011;40040;42.706;23.372;2023-04-25T01:58:57;4.03;;;3.63;;
6937;SDS011;40040;42.706;23.372;2023-04-25T02:01:24;4.10;;;3.80;;
6937;SDS011;40040;42.706;23.372;2023-04-25T02:03:50;5.18;;;4.72;;
6937;SDS011;40040;42.706;23.372;2023-04-25T02:06:17;4.60;;;4.20;;
6937;SDS011;40040;42.706;23.372;2023-04-25T02:08:44;4.07;;;3.67;;
6937;SDS011;40040;42.706;23.372;2023-04-25T02:11:11;3.45;;;2.97;;
6937;SDS011;40040;42.706;23.372;2023-04-25T02:13:39;3.47;;;3.28;;
6937;SDS011;40040;42.706;23.372;2023-04-25T02:16:06;4.15;;;3.85;;
6937;SDS011;40040;42.706;23.372;2023-04-25T02:18:33;3.50;;;3.30;;
6937;SDS011;40040;42.706;23.372;2023-04-25T02:21:02;3.50;;;3.20;;
6937;SDS011;40040;42.706;23.372;2023-04-25T02:23:29;3.45;;;3.22;;
6937;SDS011;40040;42.706;23.372;2023-04-25T02:25:56;3.85;;;3.55;;
6937;SDS011;40040;42.706;23.372;2023-04-25T02:28:23;4.03;;;3.75;;
6937;SDS011;40040;42.706;23.372;2023-04-25T02:30:52;4.20;;;3.88;;
6937;SDS011;40040;42.706;23.372;2023-04-25T02:33:19;4.63;;;4.15;;
6937;SDS011;40040;42.706;23.372;2023-04-25T02:35:46;4.40;;;3.83;;
6937;SDS011;40040;42.706;23.372;2023-04-25T02:38:13;4.05;;;3.78;;
6937;SDS011;40040;42.706;23.372;2023-04-25T02:40:40;3.75;;;3.50;;
6937;SDS011;40040;42.706;23.372;2023-04-25T02:43:07;4.07;;;3.78;;
6937;SDS011;40040;42.706;23.372;2023-04-25T02:45:33;3.72;;;3.42;;
6937;SDS011;40040;42.706;23.372;2023-04-25T02:48:03;5.03;;;4.10;;
6937;SDS011;40040;42.706;23.372;2023-04-25T02:50:30;4.40;;;4.00;;
6937;SDS011;40040;42.706;23.372;2023-04-25T02:52:56;4.35;;;3.95;;
6937;SDS011;40040;42.706;23.372;2023-04-25T02:55:23;5.30;;;4.55;;
6937;SDS011;40040;42.706;23.372;2023-04-25T02:57:51;4.50;;;4.20;;
6937;SDS011;40040;42.706;23.372;2023-04-25T03:00:20;7.25;;;6.50;;
6937;SDS011;40040;42.706;23.372;2023-04-25T03:02:47;5.45;;;4.95;;
6937;SDS011;40040;42.706;23.372;2023-04-25T03:05:15;5.20;;;4.72;;
6937;SDS011;40040;42.706;23.372;2023-04-25T03:07:43;4.28;;;3.97;;
6937;SDS011;40040;42.706;23.372;2023-04-25T03:10:11;5.07;;;4.50;;
6937;SDS011;40040;42.706;23.372;2023-04-25T03:12:37;5.63;;;4.93;;
6937;SDS011;40040;42.706;23.372;2023-04-25T03:15:05;8.68;;;6.13;;
6937;SDS011;40040;42.706;23.372;2023-04-25T03:17:32;6.63;;;5.60;;
6937;SDS011;40040;42.706;23.372;2023-04-25T03:19:59;6.35;;;5.75;;
6937;SDS011;40040;42.706;23.372;2023-04-25T03:22:27;5.80;;;5.22;;
6937;SDS011;40040;42.706;23.372;2023-04-25T03:24:54;8.30;;;5.88;;
6937;SDS011;40040;42.706;23.372;2023-04-25T03:27:21;7.18;;;5.40;;
6937;SDS011;40040;42.706;23.372;2023-04-25T03:29:47;7.07;;;5.90;;
6937;SDS011;40040;42.706;23.372;2023-04-25T03:32:14;7.43;;;6.05;;
6937;SDS011;40040;42.706;23.372;2023-04-25T03:34:41;7.00;;;5.88;;
6937;SDS011;40040;42.706;23.372;2023-04-25T03:37:08;13.98;;;8.95;;
6937;SDS011;40040;42.706;23.372;2023-04-25T03:39:36;10.10;;;7.65;;
6937;SDS011;40040;42.706;23.372;2023-04-25T03:42:03;10.60;;;7.93;;
6937;SDS011;40040;42.706;23.372;2023-04-25T03:44:30;13.68;;;9.48;;
6937;SDS011;40040;42.706;23.372;2023-04-25T03:46:57;15.93;;;11.15;;
6937;SDS011;40040;42.706;23.372;2023-04-25T03:49:24;16.02;;;11.32;;
6937;SDS011;40040;42.706;23.372;2023-04-25T03:51:51;12.10;;;9.35;;
6937;SDS011;40040;42.706;23.372;2023-04-25T03:54:18;15.18;;;10.23;;
6937;SDS011;40040;42.706;23.372;2023-04-25T03:56:46;14.45;;;10.48;;
6937;SDS011;40040;42.706;23.372;2023-04-25T03:59:13;13.48;;;11.02;;
6937;SDS011;40040;42.706;23.372;2023-04-25T04:01:40;11.65;;;9.40;;
6937;SDS011;40040;42.706;23.372;2023-04-25T04:04:07;14.35;;;10.75;;
6937;SDS011;40040;42.706;23.372;2023-04-25T04:06:34;13.25;;;9.73;;
6937;SDS011;40040;42.706;23.372;2023-04-25T04:09:01;14.40;;;10.52;;
6937;SDS011;40040;42.706;23.372;2023-04-25T04:11:28;11.63;;;9.15;;
6937;SDS011;40040;42.706;23.372;2023-04-25T04:13:57;12.90;;;9.27;;
6937;SDS011;40040;42.706;23.372;2023-04-25T04:16:24;11.35;;;9.43;;
6937;SDS011;40040;42.706;23.372;2023-04-25T04:18:51;8.82;;;7.70;;
6937;SDS011;40040;42.706;23.372;2023-04-25T04:21:18;9.32;;;7.10;;
6937;SDS011;40040;42.706;23.372;2023-04-25T04:23:45;9.07;;;7.05;;
6937;SDS011;40040;42.706;23.372;2023-04-25T04:26:13;12.98;;;9.65;;
6937;SDS011;40040;42.706;23.372;2023-04-25T04:28:41;12.68;;;9.13;;
6937;SDS011;40040;42.706;23.372;2023-04-25T04:31:10;12.30;;;9.05;;
6937;SDS011;40040;42.706;23.372;2023-04-25T04:33:37;11.13;;;9.10;;
6937;SDS011;40040;42.706;23.372;2023-04-25T04:36:04;12.18;;;9.25;;
6937;SDS011;40040;42.706;23.372;2023-04-25T04:38:32;41.45;;;21.80;;
6937;SDS011;40040;42.706;23.372;2023-04-25T04:40:59;22.25;;;13.57;;
6937;SDS011;40040;42.706;23.372;2023-04-25T04:43:27;16.55;;;11.98;;
6937;SDS011;40040;42.706;23.372;2023-04-25T04:45:54;17.45;;;11.45;;
6937;SDS011;40040;42.706;23.372;2023-04-25T04:48:23;12.50;;;9.63;;
6937;SDS011;40040;42.706;23.372;2023-04-25T04:50:50;12.48;;;9.98;;
6937;SDS011;40040;42.706;23.372;2023-04-25T04:53:17;13.23;;;10.07;;
6937;SDS011;40040;42.706;23.372;2023-04-25T04:55:45;12.43;;;9.85;;
6937;SDS011;40040;42.706;23.372;2023-04-25T04:58:12;13.88;;;10.88;;
6937;SDS011;40040;42.706;23.372;2023-04-25T05:00:39;11.63;;;8.95;;
6937;SDS011;40040;42.706;23.372;2023-04-25T05:03:05;9.52;;;7.63;;
6937;SDS011;40040;42.706;23.372;2023-04-25T05:05:34;9.60;;;6.93;;
6937;SDS011;40040;42.706;23.372;2023-04-25T05:08:00;8.50;;;6.38;;
6937;SDS011;40040;42.706;23.372;2023-04-25T05:10:27;6.97;;;6.00;;
6937;SDS011;40040;42.706;23.372;2023-04-25T05:12:54;6.35;;;5.75;;
6937;SDS011;40040;42.706;23.372;2023-04-25T05:15:21;9.43;;;6.80;;
6937;SDS011;40040;42.706;23.372;2023-04-25T05:17:47;7.65;;;6.80;;
6937;SDS011;40040;42.706;23.372;2023-04-25T05:20:14;7.88;;;6.70;;
6937;SDS011;40040;42.706;23.372;2023-04-25T05:22:42;7.90;;;6.80;;
6937;SDS011;40040;42.706;23.372;2023-04-25T05:25:09;19.27;;;12.13;;
6937;SDS011;40040;42.706;23.372;2023-04-25T05:27:36;12.32;;;7.88;;
6937;SDS011;40040;42.706;23.372;2023-04-25T05:30:03;8.73;;;6.10;;
6937;SDS011;40040;42.706;23.372;2023-04-25T05:32:31;12.23;;;8.93;;
6937;SDS011;40040;42.706;23.372;2023-04-25T05:34:58;15.15;;;9.93;;
6937;SDS011;40040;42.706;23.372;2023-04-25T05:37:24;8.93;;;6.88;;
6937;SDS011;40040;42.706;23.372;2023-04-25T05:39:53;8.13;;;6.50;;
6937;SDS011;40040;42.706;23.372;2023-04-25T05:42:19;8.77;;;6.55;;
6937;SDS011;40040;42.706;23.372;2023-04-25T05:44:46;9.90;;;5.70;;
6937;SDS011;40040;42.706;23.372;2023-04-25T05:47:13;6.28;;;5.68;;
6937;SDS011;40040;42.706;23.372;2023-04-25T05:49:40;11.20;;;8.52;;
6937;SDS011;40040;42.706;23.372;2023-04-25T05:52:07;7.78;;;6.40;;
6937;SDS011;40040;42.706;23.372;2023-04-25T05:54:34;5.65;;;5.05;;
6937;SDS011;40040;42.706;23.372;2023-04-25T05:57:02;4.78;;;4.38;;
6937;SDS011;40040;42.706;23.372;2023-04-25T05:59:28;4.13;;;3.80;;
6937;SDS011;40040;42.706;23.372;2023-04-25T06:01:55;5.05;;;4.10;;
6937;SDS011;40040;42.706;23.372;2023-04-25T06:04:22;13.45;;;10.82;;
6937;SDS011;40040;42.706;23.372;2023-04-25T06:06:49;17.92;;;11.57;;
6937;SDS011;40040;42.706;23.372;2023-04-25T06:09:16;9.07;;;7.35;;
6937;SDS011;40040;42.706;23.372;2023-04-25T06:11:42;13.02;;;9.35;;
6937;SDS011;40040;42.706;23.372;2023-04-25T06:14:11;5.95;;;5.35;;
6937;SDS011;40040;42.706;23.372;2023-04-25T06:16:37;6.00;;;5.05;;
6937;SDS011;40040;42.706;23.372;2023-04-25T06:19:04;7.22;;;5.97;;
6937;SDS011;40040;42.706;23.372;2023-04-25T06:21:31;7.75;;;6.47;;
6937;SDS011;40040;42.706;23.372;2023-04-25T06:23:58;15.35;;;10.38;;
6937;SDS011;40040;42.706;23.372;2023-04-25T06:26:25;21.58;;;14.48;;
6937;SDS011;40040;42.706;23.372;2023-04-25T06:28:51;22.75;;;15.15;;
6937;SDS011;40040;42.706;23.372;2023-04-25T06:31:19;10.55;;;8.35;;
6937;SDS011;40040;42.706;23.372;2023-04-25T06:33:46;11.90;;;8.95;;
6937;SDS011;40040;42.706;23.372;2023-04-25T06:36:13;9.10;;;7.40;;
6937;SDS011;40040;42.706;23.372;2023-04-25T06:38:40;10.25;;;7.80;;
6937;SDS011;40040;42.706;23.372;2023-04-25T06:41:07;9.35;;;7.65;;
6937;SDS011;40040;42.706;23.372;2023-04-25T06:43:34;8.25;;;7.38;;
6937;SDS011;40040;42.706;23.372;2023-04-25T06:46:00;9.18;;;7.38;;
6937;SDS011;40040;42.706;23.372;2023-04-25T06:48:29;6.97;;;6.28;;
6937;SDS011;40040;42.706;23.372;2023-04-25T06:50:55;9.38;;;7.07;;
6937;SDS011;40040;42.706;23.372;2023-04-25T06:53:22;11.50;;;7.35;;
6937;SDS011;40040;42.706;23.372;2023-04-25T06:55:49;9.02;;;7.15;;
6937;SDS011;40040;42.706;23.372;2023-04-25T06:58:16;7.72;;;7.03;;
6937;SDS011;40040;42.706;23.372;2023-04-25T07:00:43;5.82;;;5.32;;
6937;SDS011;40040;42.706;23.372;2023-04-25T07:03:09;6.72;;;5.82;;
6937;SDS011;40040;42.706;23.372;2023-04-25T07:05:38;6.05;;;5.45;;
6937;SDS011;40040;42.706;23.372;2023-04-25T07:08:05;6.57;;;5.95;;
6937;SDS011;40040;42.706;23.372;2023-04-25T07:10:31;8.25;;;6.50;;
6937;SDS011;40040;42.706;23.372;2023-04-25T07:12:58;6.45;;;5.80;;
6937;SDS011;40040;42.706;23.372;2023-04-25T07:15:25;6.10;;;5.45;;
6937;SDS011;40040;42.706;23.372;2023-04-25T07:17:52;7.40;;;5.90;;
6937;SDS011;40040;42.706;23.372;2023-04-25T07:20:19;9.25;;;6.60;;
6937;SDS011;40040;42.706;23.372;2023-04-25T07:22:47;7.97;;;5.30;;
6937;SDS011;40040;42.706;23.372;2023-04-25T07:25:15;11.43;;;7.95;;
6937;SDS011;40040;42.706;23.372;2023-04-25T07:27:42;8.65;;;7.22;;
6937;SDS011;40040;42.706;23.372;2023-04-25T07:30:09;9.20;;;7.18;;
6937;SDS011;40040;42.706;23.372;2023-04-25T07:32:37;9.15;;;7.10;;
6937;SDS011;40040;42.706;23.372;2023-04-25T07:35:05;9.52;;;6.85;;
6937;SDS011;40040;42.706;23.372;2023-04-25T07:37:33;6.60;;;5.68;;
6937;SDS011;40040;42.706;23.372;2023-04-25T07:40:01;7.47;;;6.70;;
6937;SDS011;40040;42.706;23.372;2023-04-25T07:42:28;11.48;;;8.30;;
6937;SDS011;40040;42.706;23.372;2023-04-25T07:44:56;10.25;;;7.80;;
6937;SDS011;40040;42.706;23.372;2023-04-25T07:47:22;9.63;;;7.28;;
6937;SDS011;40040;42.706;23.372;2023-04-25T07:49:49;11.68;;;8.65;;
6937;SDS011;40040;42.706;23.372;2023-04-25T07:52:16;8.35;;;6.95;;
6937;SDS011;40040;42.706;23.372;2023-04-25T07:54:43;10.65;;;7.35;;
6937;SDS011;40040;42.706;23.372;2023-04-25T07:57:11;8.13;;;6.80;;
6937;SDS011;40040;42.706;23.372;2023-04-25T07:59:39;11.98;;;8.80;;
6937;SDS011;40040;42.706;23.372;2023-04-25T08:02:05;13.77;;;9.43;;
6937;SDS011;40040;42.706;23.372;2023-04-25T08:04:32;16.60;;;10.30;;
6937;SDS011;40040;42.706;23.372;2023-04-25T08:06:59;12.68;;;7.65;;
6937;SDS011;40040;42.706;23.372;2023-04-25T08:09:26;14.80;;;8.85;;
6937;SDS011;40040;42.706;23.372;2023-04-25T08:11:54;16.58;;;10.20;;
6937;SDS011;40040;42.706;23.372;2023-04-25T08:14:22;9.35;;;7.00;;
6937;SDS011;40040;42.706;23.372;2023-04-25T08:16:49;9.35;;;7.65;;
6937;SDS011;40040;42.706;23.372;2023-04-25T08:19:16;7.95;;;7.07;;
6937;SDS011;40040;42.706;23.372;2023-04-25T08:21:42;10.27;;;7.68;;
6937;SDS011;40040;42.706;23.372;2023-04-25T08:24:09;12.60;;;7.63;;
6937;SDS011;40040;42.706;23.372;2023-04-25T08:26:36;12.80;;;7.28;;
6937;SDS011;40040;42.706;23.372;2023-04-25T08:29:04;7.40;;;6.32;;
6937;SDS011;40040;42.706;23.372;2023-04-25T08:31:32;8.75;;;6.72;;
6937;SDS011;40040;42.706;23.372;2023-04-25T08:33:59;9.93;;;7.03;;
6937;SDS011;40040;42.706;23.372;2023-04-25T08:36:26;7.20;;;6.50;;
6937;SDS011;40040;42.706;23.372;2023-04-25T08:38:54;7.45;;;6.30;;
6937;SDS011;40040;42.706;23.372;2023-04-25T08:41:21;8.48;;;6.00;;
6937;SDS011;40040;42.706;23.372;2023-04-25T08:43:48;7.50;;;6.10;;
6937;SDS011;40040;42.706;23.372;2023-04-25T08:46:17;10.15;;;8.10;;
6937;SDS011;40040;42.706;23.372;2023-04-25T08:48:46;11.80;;;9.18;;
6937;SDS011;40040;42.706;23.372;2023-04-25T08:51:15;12.52;;;9.70;;
6937;SDS011;40040;42.706;23.372;2023-04-25T08:53:46;16.15;;;9.85;;
6937;SDS011;40040;42.706;23.372;2023-04-25T08:56:17;10.43;;;8.40;;
6937;SDS011;40040;42.706;23.372;2023-04-25T08:58:47;11.02;;;9.52;;
6937;SDS011;40040;42.706;23.372;2023-04-25T09:01:14;15.50;;;11.65;;
6937;SDS011;40040;42.706;23.372;2023-04-25T09:03:42;8.82;;;7.32;;
6937;SDS011;40040;42.706;23.372;2023-04-25T09:06:11;10.60;;;8.55;;
6937;SDS011;40040;42.706;23.372;2023-04-25T09:08:38;10.75;;;7.97;;
6937;SDS011;40040;42.706;23.372;2023-04-25T09:11:06;7.22;;;6.57;;
6937;SDS011;40040;42.706;23.372;2023-04-25T09:13:33;6.70;;;6.10;;
6937;SDS011;40040;42.706;23.372;2023-04-25T09:16:00;7.32;;;5.93;;
6937;SDS011;40040;42.706;23.372;2023-04-25T09:18:27;7.65;;;6.13;;
6937;SDS011;40040;42.706;23.372;2023-04-25T09:20:55;5.60;;;5.10;;
6937;SDS011;40040;42.706;23.372;2023-04-25T09:23:24;5.82;;;5.22;;
6937;SDS011;40040;42.706;23.372;2023-04-25T09:25:52;7.22;;;5.80;;
6937;SDS011;40040;42.706;23.372;2023-04-25T09:28:22;6.70;;;5.40;;
6937;SDS011;40040;42.706;23.372;2023-04-25T09:30:53;5.43;;;4.93;;
6937;SDS011;40040;42.706;23.372;2023-04-25T09:33:23;5.32;;;4.82;;
6937;SDS011;40040;42.706;23.372;2023-04-25T09:35:55;7.38;;;5.82;;
6937;SDS011;40040;42.706;23.372;2023-04-25T09:38:30;9.45;;;8.45;;
6937;SDS011;40040;42.706;23.372;2023-04-25T09:40:57;4.90;;;4.28;;
6937;SDS011;40040;42.706;23.372;2023-04-25T09:43:25;5.50;;;5.00;;
6937;SDS011;40040;42.706;23.372;2023-04-25T09:45:53;5.93;;;5.13;;
6937;SDS011;40040;42.706;23.372;2023-04-25T09:48:22;7.38;;;5.25;;
6937;SDS011;40040;42.706;23.372;2023-04-25T09:51:03;4.88;;;4.43;;
6937;SDS011;40040;42.706;23.372;2023-04-25T09:53:32;4.82;;;4.28;;
6937;SDS011;40040;42.706;23.372;2023-04-25T09:55:59;4.47;;;4.13;;
6937;SDS011;40040;42.706;23.372;2023-04-25T09:58:29;4.30;;;4.03;;
6937;SDS011;40040;42.706;23.372;2023-04-25T10:00:56;4.00;;;3.70;;
6937;SDS011;40040;42.706;23.372;2023-04-25T10:03:26;5.22;;;4.72;;
6937;SDS011;40040;42.706;23.372;2023-04-25T10:05:55;6.43;;;5.22;;
6937;SDS011;40040;42.706;23.372;2023-04-25T10:08:24;3.05;;;2.90;;
6937;SDS011;40040;42.706;23.372;2023-04-25T10:10:53;4.70;;;4.15;;
6937;SDS011;40040;42.706;23.372;2023-04-25T10:13:20;3.22;;;3.13;;
6937;SDS011;40040;42.706;23.372;2023-04-25T10:15:47;2.90;;;2.80;;
6937;SDS011;40040;42.706;23.372;2023-04-25T10:18:14;3.17;;;3.03;;
6937;SDS011;40040;42.706;23.372;2023-04-25T10:20:43;2.60;;;2.50;;
6937;SDS011;40040;42.706;23.372;2023-04-25T10:23:11;3.03;;;2.83;;
6937;SDS011;40040;42.706;23.372;2023-04-25T10:25:42;3.20;;;3.00;;
6937;SDS011;40040;42.706;23.372;2023-04-25T10:28:10;3.25;;;3.13;;
6937;SDS011;40040;42.706;23.372;2023-04-25T10:30:37;4.38;;;4.03;;
6937;SDS011;40040;42.706;23.372;2023-04-25T10:33:29;5.85;;;4.57;;
6937;SDS011;40040;42.706;23.372;2023-04-25T10:35:58;10.15;;;7.03;;
6937;SDS011;40040;42.706;23.372;2023-04-25T10:38:25;7.28;;;5.78;;
6937;SDS011;40040;42.706;23.372;2023-04-25T10:43:39;3.22;;;2.42;;
6937;SDS011;40040;42.706;23.372;2023-04-25T10:46:13;1.73;;;1.63;;
6937;SDS011;40040;42.706;23.372;2023-04-25T10:48:45;1.77;;;1.60;;
6937;SDS011;40040;42.706;23.372;2023-04-25T10:51:19;3.35;;;2.08;;
6937;SDS011;40040;42.706;23.372;2023-04-25T10:53:56;1.98;;;1.88;;
6937;SDS011;40040;42.706;23.372;2023-04-25T10:56:25;2.15;;;2.05;;
6937;SDS011;40040;42.706;23.372;2023-04-25T10:59:03;2.42;;;2.33;;
6937;SDS011;40040;42.706;23.372;2023-04-25T11:01:35;2.83;;;2.50;;
6937;SDS011;40040;42.706;23.372;2023-04-25T11:04:03;2.67;;;2.20;;
6937;SDS011;40040;42.706;23.372;2023-04-25T11:06:37;2.85;;;2.67;;
6937;SDS011;40040;42.706;23.372;2023-04-25T11:09:20;2.47;;;2.33;;
6937;SDS011;40040;42.706;23.372;2023-04-25T11:11:53;2.42;;;2.33;;
6937;SDS011;40040;42.706;23.372;2023-04-25T11:14:21;1.60;;;1.50;;
6937;SDS011;40040;42.706;23.372;2023-04-25T11:16:52;1.27;;;1.20;;
6937;SDS011;40040;42.706;23.372;2023-04-25T11:19:19;1.23;;;1.23;;
6937;SDS011;40040;42.706;23.372;2023-04-25T11:21:46;2.10;;;1.25;;
6937;SDS011;40040;42.706;23.372;2023-04-25T11:24:13;1.17;;;1.10;;
6937;SDS011;40040;42.706;23.372;2023-04-25T11:26:41;1.60;;;1.60;;
6937;SDS011;40040;42.706;23.372;2023-04-25T11:29:08;1.20;;;1.20;;
6937;SDS011;40040;42.706;23.372;2023-04-25T11:31:36;0.88;;;0.88;;
6937;SDS011;40040;42.706;23.372;2023-04-25T11:34:03;2.47;;;1.10;;
6937;SDS011;40040;42.706;23.372;2023-04-25T11:36:30;1.00;;;1.00;;
6937;SDS011;40040;42.706;23.372;2023-04-25T11:38:57;1.50;;;1.10;;
6937;SDS011;40040;42.706;23.372;2023-04-25T11:41:24;1.15;;;1.15;;
6937;SDS011;40040;42.706;23.372;2023-04-25T11:43:52;1.35;;;1.25;;
6937;SDS011;40040;42.706;23.372;2023-04-25T11:46:19;1.20;;;1.20;;
6937;SDS011;40040;42.706;23.372;2023-04-25T11:48:47;2.05;;;1.30;;
6937;SDS011;40040;42.706;23.372;2023-04-25T11:51:15;1.40;;;1.40;;
6937;SDS011;40040;42.706;23.372;2023-04-25T11:53:42;1.50;;;1.42;;
6937;SDS011;40040;42.706;23.372;2023-04-25T11:56:11;1.40;;;1.40;;
6937;SDS011;40040;42.706;23.372;2023-04-25T11:58:54;1.35;;;1.35;;
6937;SDS011;40040;42.706;23.372;2023-04-25T12:01:25;1.52;;;1.10;;
6937;SDS011;40040;42.706;23.372;2023-04-25T12:03:54;1.63;;;1.50;;
6937;SDS011;40040;42.706;23.372;2023-04-25T12:06:23;2.20;;;1.00;;
6937;SDS011;40040;42.706;23.372;2023-04-25T12:08:59;1.40;;;1.40;;
6937;SDS011;40040;42.706;23.372;2023-04-25T12:11:28;1.17;;;1.17;;
6937;SDS011;40040;42.706;23.372;2023-04-25T12:13:56;1.15;;;1.10;;
6937;SDS011;40040;42.706;23.372;2023-04-25T12:16:28;1.17;;;1.17;;
6937;SDS011;40040;42.706;23.372;2023-04-25T12:18:56;1.80;;;1.38;;
6937;SDS011;40040;42.706;23.372;2023-04-25T12:21:27;1.00;;;1.00;;
6937;SDS011;40040;42.706;23.372;2023-04-25T12:23:55;0.80;;;0.80;;
6937;SDS011;40040;42.706;23.372;2023-04-25T12:26:23;1.10;;;1.10;;
6937;SDS011;40040;42.706;23.372;2023-04-25T12:28:50;0.80;;;0.80;;
6937;SDS011;40040;42.706;23.372;2023-04-25T12:31:18;1.70;;;1.30;;
6937;SDS011;40040;42.706;23.372;2023-04-25T12:33:45;1.10;;;1.10;;
6937;SDS011;40040;42.706;23.372;2023-04-25T12:36:14;1.30;;;1.20;;
6937;SDS011;40040;42.706;23.372;2023-04-25T12:38:42;2.38;;;1.40;;
6937;SDS011;40040;42.706;23.372;2023-04-25T12:41:09;1.55;;;1.02;;
6937;SDS011;40040;42.706;23.372;2023-04-25T12:43:36;1.30;;;1.20;;
6937;SDS011;40040;42.706;23.372;2023-04-25T12:46:03;1.20;;;1.10;;
6937;SDS011;40040;42.706;23.372;2023-04-25T12:48:30;1.17;;;1.10;;
6937;SDS011;40040;42.706;23.372;2023-04-25T12:50:57;3.30;;;1.30;;
6937;SDS011;40040;42.706;23.372;2023-04-25T12:53:25;6.07;;;3.80;;
6937;SDS011;40040;42.706;23.372;2023-04-25T12:55:52;2.85;;;2.50;;
6937;SDS011;40040;42.706;23.372;2023-04-25T12:58:19;2.55;;;2.30;;
6937;SDS011;40040;42.706;23.372;2023-04-25T13:00:46;3.88;;;2.75;;
6937;SDS011;40040;42.706;23.372;2023-04-25T13:03:13;4.00;;;3.65;;
6937;SDS011;40040;42.706;23.372;2023-04-25T13:05:40;7.60;;;4.07;;
6937;SDS011;40040;42.706;23.372;2023-04-25T13:08:07;3.92;;;3.00;;
6937;SDS011;40040;42.706;23.372;2023-04-25T13:13:04;3.92;;;3.55;;
6937;SDS011;40040;42.706;23.372;2023-04-25T13:15:31;4.00;;;3.60;;
6937;SDS011;40040;42.706;23.372;2023-04-25T13:17:57;5.47;;;4.80;;
6937;SDS011;40040;42.706;23.372;2023-04-25T13:20:24;7.13;;;4.07;;
6937;SDS011;40040;42.706;23.372;2023-04-25T13:22:51;6.05;;;3.53;;
6937;SDS011;40040;42.706;23.372;2023-04-25T13:25:18;9.63;;;7.15;;
6937;SDS011;40040;42.706;23.372;2023-04-25T13:27:46;3.28;;;2.97;;
6937;SDS011;40040;42.706;23.372;2023-04-25T13:30:13;5.35;;;2.92;;
6937;SDS011;40040;42.706;23.372;2023-04-25T13:32:40;2.30;;;2.20;;
6937;SDS011;40040;42.706;23.372;2023-04-25T13:35:08;2.45;;;2.25;;
6937;SDS011;40040;42.706;23.372;2023-04-25T13:37:36;2.50;;;2.30;;
6937;SDS011;40040;42.706;23.372;2023-04-25T13:40:03;3.28;;;2.97;;
6937;SDS011;40040;42.706;23.372;2023-04-25T13:42:33;3.88;;;3.38;;
6937;SDS011;40040;42.706;23.372;2023-04-25T13:45:01;2.92;;;2.72;;
6937;SDS011;40040;42.706;23.372;2023-04-25T13:47:28;7.25;;;5.55;;
6937;SDS011;40040;42.706;23.372;2023-04-25T13:49:56;3.03;;;2.83;;
6937;SDS011;40040;42.706;23.372;2023-04-25T13:52:23;3.25;;;3.05;;
6937;SDS011;40040;42.706;23.372;2023-04-25T13:54:50;5.13;;;3.00;;
6937;SDS011;40040;42.706;23.372;2023-04-25T13:57:17;7.90;;;6.00;;
6937;SDS011;40040;42.706;23.372;2023-04-25T13:59:44;4.95;;;4.45;;
6937;SDS011;40040;42.706;23.372;2023-04-25T14:02:13;3.90;;;3.60;;
6937;SDS011;40040;42.706;23.372;2023-04-25T14:04:40;11.00;;;7.57;;
6937;SDS011;40040;42.706;23.372;2023-04-25T14:07:07;7.40;;;6.03;;
6937;SDS011;40040;42.706;23.372;2023-04-25T14:09:35;3.75;;;3.55;;
6937;SDS011;40040;42.706;23.372;2023-04-25T14:12:02;3.63;;;3.17;;
6937;SDS011;40040;42.706;23.372;2023-04-25T14:14:29;2.88;;;2.63;;
6937;SDS011;40040;42.706;23.372;2023-04-25T14:16:56;4.05;;;3.35;;
6937;SDS011;40040;42.706;23.372;2023-04-25T14:19:24;3.28;;;3.08;;
6937;SDS011;40040;42.706;23.372;2023-04-25T14:21:51;2.40;;;2.25;;
6937;SDS011;40040;42.706;23.372;2023-04-25T14:24:18;3.40;;;3.13;;
6937;SDS011;40040;42.706;23.372;2023-04-25T14:26:45;2.42;;;2.25;;
6937;SDS011;40040;42.706;23.372;2023-04-25T14:29:12;2.30;;;2.20;;
6937;SDS011;40040;42.706;23.372;2023-04-25T14:31:39;3.85;;;3.60;;
6937;SDS011;40040;42.706;23.372;2023-04-25T14:34:06;1.92;;;1.83;;
6937;SDS011;40040;42.706;23.372;2023-04-25T14:36:35;2.17;;;2.08;;
6937;SDS011;40040;42.706;23.372;2023-04-25T14:39:02;2.20;;;2.10;;
6937;SDS011;40040;42.706;23.372;2023-04-25T14:41:30;1.75;;;1.65;;
6937;SDS011;40040;42.706;23.372;2023-04-25T14:43:57;1.95;;;1.83;;
6937;SDS011;40040;42.706;23.372;2023-04-25T14:46:23;5.43;;;5.03;;
6937;SDS011;40040;42.706;23.372;2023-04-25T14:48:50;3.30;;;3.10;;
6937;SDS011;40040;42.706;23.372;2023-04-25T14:51:17;2.25;;;2.15;;